Time;durP1;ratioP1;P1;durP2;ratioP2;P2;SDS_P1;SDS_P2;PMS_P1;PMS_P2;Temp;Humidity;BMP_temperature;BMP_pressure;BME280_temperature;BME280_humidity;BME280_pressure;Samples;Min_cycle;Max_cycle;Signal;HPM_P1;HPM_P2
2022/10/24 00:00:07;;;;;;;30.80;16.02;;;;;;;11.59;100.00;99119.84;8433517;28;20071;-80
2022/10/24 00:04:28;;;;;;;25.20;14.77;;;;;;;11.54;100.00;99111.88;8436825;28;20040;-80
2022/10/24 00:08:29;;;;;;;34.05;16.58;;;;;;;11.55;100.00;99102.66;8428551;28;20047;-80
2022/10/24 00:12:30;;;;;;;33.63;16.05;;;;;;;11.51;100.00;99112.53;8417719;28;20110;-79
2022/10/24 00:16:31;;;;;;;26.45;15.25;;;;;;;11.50;100.00;99127.16;8401883;28;20489;-79
2022/10/24 00:20:32;;;;;;;35.22;15.88;;;;;;;11.50;100.00;99116.34;8464596;27;20074;-81
2022/10/24 00:24:33;;;;;;;27.75;15.70;;;;;;;11.50;100.00;99121.75;8499953;27;20048;-80
2022/10/24 00:28:35;;;;;;;26.92;15.27;;;;;;;11.46;100.00;99127.00;8500484;27;20087;-80
2022/10/24 00:32:36;;;;;;;32.97;15.55;;;;;;;11.44;100.00;99124.59;8487574;27;20160;-81
2022/10/24 00:36:37;;;;;;;31.55;15.80;;;;;;;11.46;100.00;99137.00;8505892;27;20043;-80
2022/10/24 00:40:38;;;;;;;31.13;15.10;;;;;;;11.40;100.00;99149.88;8466219;27;20043;-80
2022/10/24 00:44:40;;;;;;;33.47;16.33;;;;;;;11.36;100.00;99149.72;8506775;27;20053;-80
2022/10/24 00:48:51;;;;;;;29.23;14.77;;;;;;;11.33;100.00;99155.72;8502043;27;20038;-80
2022/10/24 00:52:52;;;;;;;31.30;15.30;;;;;;;11.33;100.00;99139.50;8522768;27;20066;-80
2022/10/24 00:56:59;;;;;;;28.08;14.82;;;;;;;11.32;100.00;99121.69;8442133;27;20057;-81
2022/10/24 01:01:01;;;;;;;35.58;14.88;;;;;;;11.33;100.00;99112.47;8434770;28;20056;-80
2022/10/24 01:05:03;;;;;;;27.40;14.30;;;;;;;11.33;100.00;99093.53;8428174;28;20090;-80
2022/10/24 01:09:06;;;;;;;30.75;14.23;;;;;;;11.41;100.00;99087.38;8439338;28;20389;-80
2022/10/24 01:13:32;;;;;;;28.55;14.20;;;;;;;11.48;100.00;99069.88;8434188;28;20054;-80
2022/10/24 01:17:52;;;;;;;33.47;14.38;;;;;;;11.53;100.00;99056.19;8433241;28;20066;-79
2022/10/24 01:21:57;;;;;;;27.17;13.75;;;;;;;11.59;100.00;99076.59;8413582;28;20071;-80
2022/10/24 01:26:16;;;;;;;22.67;12.25;;;;;;;11.64;100.00;99062.91;8433173;28;20437;-80
2022/10/24 01:30:17;;;;;;;;;;;;;;;11.60;100.00;99051.94;8434856;27;20047;-82
2022/10/24 01:34:25;;;;;;;20.33;12.75;;;;;;;11.56;100.00;99033.94;8503555;27;19924;-81
2022/10/24 01:38:41;;;;;;;22.88;13.73;;;;;;;11.63;100.00;99050.50;8502575;27;20104;-79
2022/10/24 01:42:43;;;;;;;29.20;13.52;;;;;;;11.61;100.00;99047.31;8500776;27;20046;-79
2022/10/24 01:46:49;;;;;;;29.58;15.10;;;;;;;11.48;100.00;99032.81;8481557;27;20086;-81
2022/10/24 01:50:52;;;;;;;31.60;14.32;;;;;;;11.42;100.00;99029.47;8514664;27;20034;-80
2022/10/24 01:54:53;;;;;;;28.52;14.93;;;;;;;11.33;100.00;99025.97;8512250;27;20124;-80
2022/10/24 01:59:29;;;;;;;29.75;15.35;;;;;;;11.25;100.00;99018.63;8500231;27;20127;-81
2022/10/24 02:03:34;;;;;;;30.95;13.98;;;;;;;11.19;100.00;99014.50;8500864;27;20492;-80
2022/10/24 02:07:36;;;;;;;26.02;14.60;;;;;;;11.19;100.00;99025.31;8501008;27;20484;-80
2022/10/24 02:11:38;;;;;;;30.40;14.40;;;;;;;11.23;100.00;99012.75;8502090;27;20400;-80
2022/10/24 02:15:47;;;;;;;25.13;14.20;;;;;;;11.28;100.00;99018.00;8460414;27;20042;-79
2022/10/24 02:19:48;;;;;;;30.35;15.52;;;;;;;11.31;100.00;99014.69;8493856;27;20054;-80
2022/10/24 02:24:00;;;;;;;27.02;14.13;;;;;;;11.33;100.00;99012.44;8488051;27;20085;-81
2022/10/24 02:28:11;;;;;;;24.58;14.30;;;;;;;11.32;100.00;99024.34;8496104;27;20054;-80
2022/10/24 02:32:17;;;;;;;28.15;15.00;;;;;;;11.30;100.00;99021.19;8469129;27;20050;-81
2022/10/24 02:36:21;;;;;;;25.08;14.80;;;;;;;11.28;100.00;99034.22;8498928;27;20055;-81
2022/10/24 02:40:23;;;;;;;24.33;13.70;;;;;;;11.27;100.00;99032.63;8505610;27;20406;-80
2022/10/24 02:44:26;;;;;;;27.30;15.63;;;;;;;11.24;100.00;99044.06;8503538;27;20047;-80
2022/10/24 02:48:33;;;;;;;26.92;15.68;;;;;;;11.24;100.00;99048.69;8482436;27;20047;-80
2022/10/24 02:52:36;;;;;;;24.67;13.75;;;;;;;11.24;100.00;99057.59;8502650;27;20400;-81
2022/10/24 02:56:49;;;;;;;25.50;13.93;;;;;;;11.24;100.00;99044.06;8484025;27;20042;-80
2022/10/24 03:00:49;;;;;;;21.25;13.43;;;;;;;11.20;100.00;99048.53;8453392;27;20051;-80
2022/10/24 03:04:51;;;;;;;28.30;14.48;;;;;;;11.19;100.00;99030.72;8514463;27;20051;-81
2022/10/24 03:08:51;;;;;;;23.20;14.10;;;;;;;11.20;100.00;99031.50;8510444;27;20134;-79
2022/10/24 03:12:52;;;;;;;29.65;15.15;;;;;;;11.19;100.00;99035.31;8507251;27;20145;-81
2022/10/24 03:16:53;;;;;;;26.70;14.77;;;;;;;11.21;100.00;99044.69;8506464;27;20104;-79
2022/10/24 03:20:54;;;;;;;24.58;16.02;;;;;;;11.23;100.00;99047.88;8507081;27;20069;-80
2022/10/24 03:24:55;;;;;;;26.05;15.13;;;;;;;11.22;100.00;99034.66;8500707;27;20082;-79
2022/10/24 03:28:56;;;;;;;33.60;14.68;;;;;;;11.20;100.00;99032.31;8459936;27;20397;-81
2022/10/24 03:32:58;;;;;;;25.52;14.05;;;;;;;11.21;100.00;99012.25;8497337;27;20087;-83
2022/10/24 03:36:59;;;;;;;22.90;13.93;;;;;;;11.20;100.00;99026.91;8503196;27;20051;-81
2022/10/24 03:41:00;;;;;;;21.42;13.05;;;;;;;11.21;100.00;99033.09;8499329;27;20051;-80
2022/10/24 03:45:01;;;;;;;20.25;13.57;;;;;;;11.25;100.00;99024.03;8460259;27;20047;-80
2022/10/24 03:49:02;;;;;;;20.20;13.45;;;;;;;11.27;100.00;99016.41;8484590;27;20050;-80
2022/10/24 03:53:03;;;;;;;20.23;13.05;;;;;;;11.30;100.00;99021.19;8505008;27;20407;-81
2022/10/24 03:57:04;;;;;;;19.02;12.20;;;;;;;11.29;100.00;99008.78;8498650;27;20094;-81
2022/10/24 04:01:08;;;;;;;21.60;12.65;;;;;;;11.29;100.00;99008.78;8497747;27;20047;-80
2022/10/24 04:05:09;;;;;;;18.98;11.95;;;;;;;11.34;100.00;99011.34;8496396;27;20047;-81
2022/10/24 04:09:11;;;;;;;21.08;11.90;;;;;;;11.39;100.00;99010.38;8478617;27;20491;-80
2022/10/24 04:13:11;;;;;;;19.02;11.85;;;;;;;11.42;100.00;98997.00;8460098;27;20099;-80
2022/10/24 04:17:12;;;;;;;18.88;12.23;;;;;;;11.47;100.00;98992.59;8497025;27;20051;-80
2022/10/24 04:21:13;;;;;;;24.80;11.57;;;;;;;11.48;100.00;99010.38;8501933;27;20534;-80
2022/10/24 04:25:15;;;;;;;21.67;12.05;;;;;;;11.48;100.00;99011.19;8503563;27;20617;-80
2022/10/24 04:29:16;;;;;;;27.23;12.70;;;;;;;11.48;100.00;99021.19;8504143;27;20154;-80
2022/10/24 04:33:17;;;;;;;24.15;12.85;;;;;;;11.46;100.00;99028.84;8502468;27;20031;-82
2022/10/24 04:37:18;;;;;;;20.83;13.25;;;;;;;11.46;100.00;99026.16;8516743;27;20138;-81
2022/10/24 04:41:19;;;;;;;27.58;13.07;;;;;;;11.47;100.00;99015.03;8524394;27;20038;-82
2022/10/24 04:45:20;;;;;;;26.88;14.93;;;;;;;11.49;100.00;99017.38;8508886;27;20047;-82
2022/10/24 04:49:21;;;;;;;22.75;14.77;;;;;;;11.48;100.00;99010.38;8509600;27;20483;-82
2022/10/24 04:53:22;;;;;;;22.38;14.27;;;;;;;11.51;100.00;99012.47;8493454;27;20047;-81
2022/10/24 04:57:23;;;;;;;24.05;14.43;;;;;;;11.46;100.00;99007.22;8520862;27;20042;-80
2022/10/24 05:01:23;;;;;;;22.92;13.52;;;;;;;11.41;100.00;99027.91;8520313;27;20451;-81
2022/10/24 05:05:25;;;;;;;22.77;13.65;;;;;;;11.38;100.00;99028.50;8503022;27;20437;-82
2022/10/24 05:09:25;;;;;;;25.23;14.38;;;;;;;11.35;100.00;99037.25;8515502;27;20039;-81
2022/10/24 05:13:27;;;;;;;27.35;13.73;;;;;;;11.34;100.00;99054.59;8510832;27;20041;-82
2022/10/24 05:17:27;;;;;;;20.42;11.80;;;;;;;11.31;100.00;99047.13;8510746;27;20039;-82
2022/10/24 05:21:28;;;;;;;20.63;11.50;;;;;;;11.32;100.00;99045.97;8504930;27;20047;-82
2022/10/24 05:25:29;;;;;;;19.52;11.18;;;;;;;11.33;100.00;99053.00;8501483;27;20092;-81
2022/10/24 05:29:30;;;;;;;15.25;10.02;;;;;;;11.33;100.00;99050.28;8513161;27;20052;-81
2022/10/24 05:33:31;;;;;;;15.20;10.38;;;;;;;11.35;100.00;99036.47;8498106;27;20583;-83
2022/10/24 05:37:32;;;;;;;19.77;10.10;;;;;;;11.36;100.00;99036.16;8501737;27;20072;-82
2022/10/24 05:41:33;;;;;;;17.98;9.73;;;;;;;11.37;100.00;99043.13;8490659;27;20162;-81
2022/10/24 05:45:34;;;;;;;20.00;10.30;;;;;;;11.38;100.00;99033.91;8527627;27;20111;-82
2022/10/24 05:49:35;;;;;;;18.02;9.82;;;;;;;11.38;100.00;99028.50;8485694;27;20130;-81
2022/10/24 05:53:36;;;;;;;17.42;10.40;;;;;;;11.38;100.00;99036.63;8523107;27;20046;-81
2022/10/24 05:57:37;;;;;;;17.95;10.68;;;;;;;11.40;100.00;99037.13;8522223;27;20087;-81
2022/10/24 06:01:39;;;;;;;16.08;8.73;;;;;;;11.45;100.00;99044.28;8525091;27;20452;-81
2022/10/24 06:05:40;;;;;;;13.07;9.00;;;;;;;11.51;100.00;99047.63;8523977;27;20045;-82
2022/10/24 06:09:41;;;;;;;14.88;9.40;;;;;;;11.58;100.00;99047.97;8481283;27;20043;-81
2022/10/24 06:13:42;;;;;;;13.52;9.45;;;;;;;11.62;100.00;99051.63;8487359;27;20678;-82
2022/10/24 06:17:43;;;;;;;14.48;9.23;;;;;;;11.68;100.00;99059.28;8510654;27;20504;-81
2022/10/24 06:21:44;;;;;;;13.98;8.52;;;;;;;11.73;100.00;99050.22;8459176;27;20104;-82
2022/10/24 06:25:45;;;;;;;15.30;8.98;;;;;;;11.77;100.00;99056.59;8505789;27;20039;-81
2022/10/24 06:29:46;;;;;;;18.02;8.27;;;;;;;11.84;100.00;99056.94;8511583;27;20694;-82
2022/10/24 06:33:47;;;;;;;19.05;9.18;;;;;;;11.88;100.00;99052.47;8509055;27;20046;-81
2022/10/24 06:37:48;;;;;;;14.07;8.98;;;;;;;11.92;100.00;99048.00;8516964;27;20031;-81
2022/10/24 06:41:49;;;;;;;18.42;7.65;;;;;;;12.01;100.00;99054.19;8513112;27;20546;-81
2022/10/24 06:45:50;;;;;;;14.18;7.75;;;;;;;12.10;100.00;99057.72;8504812;27;20069;-80
2022/10/24 06:49:51;;;;;;;12.15;7.43;;;;;;;12.17;100.00;99066.13;8503070;27;20464;-81
2022/10/24 06:53:52;;;;;;;14.35;7.80;;;;;;;12.26;100.00;99072.38;8498257;27;20038;-80
2022/10/24 06:57:56;;;;;;;20.10;9.65;;;;;;;12.33;100.00;99069.16;8506701;27;20061;-80
2022/10/24 07:01:57;;;;;;;13.77;9.15;;;;;;;12.39;100.00;99072.47;8506464;27;20596;-80
2022/10/24 07:05:58;;;;;;;15.70;9.10;;;;;;;12.42;100.00;99085.41;8515647;27;20408;-81
2022/10/24 07:09:59;;;;;;;16.40;9.13;;;;;;;12.44;100.00;99080.44;8509019;27;20175;-81
2022/10/24 07:14:00;;;;;;;18.13;8.43;;;;;;;12.46;100.00;99078.22;8454135;27;20088;-82
2022/10/24 07:18:01;;;;;;;14.73;9.07;;;;;;;12.52;100.00;99066.09;8507935;27;20433;-82
2022/10/24 07:22:02;;;;;;;18.05;9.75;;;;;;;12.57;100.00;99065.94;8446855;27;20043;-81
2022/10/24 07:26:09;;;;;;;16.70;9.52;;;;;;;12.63;100.00;99070.06;8512998;27;20057;-82
2022/10/24 07:30:17;;;;;;;17.42;9.30;;;;;;;12.73;100.00;99072.44;8501969;27;20585;-82
2022/10/24 07:34:18;;;;;;;16.93;8.50;;;;;;;12.80;100.00;99078.13;8510022;27;20514;-81
2022/10/24 07:38:20;;;;;;;12.60;8.50;;;;;;;12.87;100.00;99078.44;8512456;27;20563;-81
2022/10/24 07:42:20;;;;;;;16.58;9.48;;;;;;;12.94;100.00;99073.31;8505359;27;20058;-81
2022/10/24 07:46:22;;;;;;;20.65;9.07;;;;;;;13.01;100.00;99084.44;8493065;27;20043;-81
2022/10/24 07:50:26;;;;;;;17.80;9.68;;;;;;;13.09;100.00;99074.69;8502046;27;20399;-82
2022/10/24 07:54:27;;;;;;;19.67;9.35;;;;;;;13.19;100.00;99074.34;8484943;27;20035;-81
2022/10/24 07:58:28;;;;;;;19.60;9.68;;;;;;;13.30;100.00;99080.19;8501245;27;20039;-81
2022/10/24 08:02:29;;;;;;;14.95;9.05;;;;;;;13.38;100.00;99071.19;8498564;27;20051;-81
2022/10/24 08:06:30;;;;;;;18.88;8.20;;;;;;;13.47;100.00;99085.53;8506743;27;20046;-81
2022/10/24 08:10:32;;;;;;;17.63;8.50;;;;;;;13.58;100.00;99081.31;8510338;27;20051;-82
2022/10/24 08:14:33;;;;;;;13.23;8.13;;;;;;;13.73;99.93;99088.09;8508280;27;20057;-81
2022/10/24 08:18:34;;;;;;;16.83;8.48;;;;;;;13.82;100.00;99086.91;8504150;27;20134;-82
2022/10/24 08:22:35;;;;;;;17.38;7.75;;;;;;;13.90;99.90;99083.34;8464777;27;20078;-80
2022/10/24 08:26:39;;;;;;;15.25;8.50;;;;;;;14.00;99.71;99086.78;8503786;27;20047;-82
2022/10/24 08:30:40;;;;;;;14.07;7.72;;;;;;;14.07;99.75;99092.44;8493422;27;20091;-81
2022/10/24 08:34:41;;;;;;;16.73;8.32;;;;;;;14.18;99.39;99088.22;8503915;27;20111;-81
2022/10/24 08:38:42;;;;;;;13.00;7.82;;;;;;;14.23;99.19;99079.84;8504424;27;20105;-83
2022/10/24 08:42:44;;;;;;;16.40;7.60;;;;;;;14.33;99.07;99090.31;8431299;28;20101;-81
2022/10/24 08:46:54;;;;;;;23.50;7.45;;;;;;;14.45;98.65;99087.69;8442440;28;20134;-81
2022/10/24 08:51:06;;;;;;;12.77;6.78;;;;;;;14.56;98.22;99083.41;8438041;28;20048;-80
2022/10/24 08:55:31;;;;;;;17.98;7.22;;;;;;;14.68;98.13;99082.66;8412881;28;20063;-81
2022/10/24 08:59:33;;;;;;;16.55;7.25;;;;;;;14.71;98.12;99084.69;8418234;28;20040;-81
2022/10/24 09:03:39;;;;;;;17.50;8.10;;;;;;;14.79;97.83;99086.53;8431418;28;20047;-81
2022/10/24 09:07:42;;;;;;;25.73;9.13;;;;;;;14.88;97.77;99089.16;8436514;28;20051;-81
2022/10/24 09:11:59;;;;;;;20.85;8.70;;;;;;;14.93;97.69;99102.53;8414297;28;20102;-81
2022/10/24 09:16:03;;;;;;;18.20;8.77;;;;;;;15.00;97.50;99081.03;8417585;28;20711;-80
2022/10/24 09:20:27;;;;;;;17.35;8.25;;;;;;;15.15;96.92;99083.06;8477203;27;20081;-81
2022/10/24 09:25:03;;;;;;;16.75;7.75;;;;;;;15.29;96.83;99094.41;8482803;27;20067;-81
2022/10/24 09:29:03;;;;;;;14.43;7.35;;;;;;;15.52;96.32;99081.97;8380535;28;20045;-80
2022/10/24 09:33:36;;;;;;;14.23;7.32;;;;;;;15.82;95.02;99078.97;8377595;28;20634;-81
2022/10/24 09:37:42;;;;;;;16.15;6.95;;;;;;;16.11;93.38;99081.41;8381774;28;20195;-81
2022/10/24 09:41:45;;;;;;;14.13;5.50;;;;;;;16.37;92.48;99084.47;8383248;28;20051;-80
2022/10/24 09:46:02;;;;;;;12.60;5.60;;;;;;;16.62;90.99;99087.13;8386158;28;20589;-81
2022/10/24 09:50:03;;;;;;;8.68;4.80;;;;;;;16.85;89.24;99088.13;8375276;28;20052;-80
2022/10/24 09:54:18;;;;;;;9.65;4.90;;;;;;;17.10;88.52;99089.53;8369006;28;20505;-80
2022/10/24 09:58:21;;;;;;;10.73;3.97;;;;;;;17.36;86.63;99088.22;8384055;28;20176;-82
2022/10/24 10:02:27;;;;;;;10.98;3.70;;;;;;;17.53;85.64;99075.00;8368082;28;20049;-82
2022/10/24 10:06:32;;;;;;;6.90;3.45;;;;;;;17.70;85.33;99084.75;8484772;27;20039;-82
2022/10/24 10:10:35;;;;;;;11.00;3.42;;;;;;;17.85;84.36;99080.41;8519538;27;20039;-81
2022/10/24 10:14:39;;;;;;;7.03;3.40;;;;;;;17.74;83.14;99091.09;8508714;27;20047;-82
2022/10/24 10:18:47;;;;;;;7.10;3.30;;;;;;;17.64;84.09;99080.72;8527551;27;20432;-80
2022/10/24 10:22:48;;;;;;;13.30;3.92;;;;;;;17.54;85.10;99070.31;8529463;27;20078;-81
2022/10/24 10:26:49;;;;;;;8.82;3.25;;;;;;;17.53;85.11;99074.19;8513186;27;20045;-81
2022/10/24 10:30:55;;;;;;;13.90;3.60;;;;;;;17.68;84.80;99070.66;8528616;27;20049;-81
2022/10/24 10:35:03;;;;;;;7.60;3.50;;;;;;;17.90;82.35;99072.72;8503226;27;20111;-80
2022/10/24 10:39:24;;;;;;;;;;;;;;;18.06;82.32;99070.72;8506360;27;20542;-82
2022/10/24 10:43:39;;;;;;;9.65;3.20;;;;;;;18.22;81.84;99086.25;8528110;27;20392;-81
2022/10/24 10:47:52;;;;;;;9.82;3.65;;;;;;;18.41;81.82;99075.31;8507511;27;20360;-81
2022/10/24 10:52:24;;;;;;;16.08;3.83;;;;;;;18.61;80.83;99063.25;8509225;27;20134;-80
2022/10/24 10:57:17;;;;;;;7.88;3.08;;;;;;;18.56;79.53;99066.25;8501612;27;20495;-82
2022/10/24 11:01:36;;;;;;;14.98;3.35;;;;;;;18.74;79.16;99078.31;8369601;28;20135;-82
2022/10/24 11:05:47;;;;;;;9.70;2.67;;;;;;;18.92;78.21;99073.97;8364304;28;20051;-81
2022/10/24 11:09:50;;;;;;;6.43;3.15;;;;;;;19.12;77.57;99065.69;8367680;28;20056;-81
2022/10/24 11:14:14;;;;;;;10.25;3.55;;;;;;;19.25;76.99;99054.16;8358339;28;20053;-81
2022/10/24 11:18:25;;;;;;;9.25;3.28;;;;;;;19.35;77.13;99058.25;8225206;28;20047;-81
2022/10/24 11:22:36;;;;;;;15.35;3.35;;;;;;;19.33;76.81;99055.06;8229421;28;20564;-81
2022/10/24 11:26:42;;;;;;;19.17;3.15;;;;;;;19.44;76.09;99061.50;8227333;28;20607;-82
2022/10/24 11:30:50;;;;;;;8.75;2.83;;;;;;;19.59;74.60;99055.09;8214809;28;20451;-83
2022/10/24 11:35:05;;;;;;;12.30;3.60;;;;;;;19.64;74.63;99043.81;8229073;28;20418;-81
2022/10/24 11:39:30;;;;;;;8.73;2.90;;;;;;;19.68;74.73;99044.66;8333882;28;20445;-81
2022/10/24 11:43:39;;;;;;;13.48;5.32;;;;;;;19.73;75.31;99047.06;8224905;28;20501;-81
2022/10/24 11:47:45;;;;;;;8.25;3.00;;;;;;;19.77;74.77;99036.94;8224555;28;20407;-81
2022/10/24 11:51:59;;;;;;;6.20;2.83;;;;;;;19.81;75.02;99032.34;8224223;28;20043;-81
2022/10/24 11:56:10;;;;;;;11.00;3.00;;;;;;;19.81;74.24;99035.06;8323795;28;20057;-81
2022/10/24 12:00:34;;;;;;;9.13;2.47;;;;;;;19.86;74.00;99024.94;8353152;28;20427;-81
2022/10/24 12:04:53;;;;;;;12.10;2.97;;;;;;;19.94;73.57;99024.66;8353142;28;20037;-81
2022/10/24 12:09:12;;;;;;;17.05;3.95;;;;;;;20.05;73.26;99024.78;8354122;28;20056;-81
2022/10/24 12:13:13;;;;;;;12.82;2.88;;;;;;;19.95;72.13;99020.75;8355175;28;20247;-81
2022/10/24 12:17:36;;;;;;;15.05;3.53;;;;;;;19.83;72.23;99012.00;8358949;28;20040;-82
2022/10/24 12:21:55;;;;;;;13.82;3.17;;;;;;;19.79;72.78;99001.75;8471098;27;20050;-81
2022/10/24 12:26:17;;;;;;;;;;;;;;;19.77;72.68;99004.06;8498849;27;20043;-83
2022/10/24 12:30:20;;;;;;;8.77;2.88;;;;;;;19.78;72.23;99000.19;8503225;27;20551;-82
2022/10/24 12:34:21;;;;;;;11.48;2.95;;;;;;;19.83;72.62;98991.63;8499386;27;20043;-81
2022/10/24 12:38:28;;;;;;;8.07;2.80;;;;;;;19.90;72.29;98979.19;8509972;27;20106;-83
2022/10/24 12:42:29;;;;;;;8.80;2.45;;;;;;;19.98;72.37;98986.34;8512015;27;20474;-81
2022/10/24 12:46:36;;;;;;;10.38;2.60;;;;;;;20.16;72.43;98979.09;8487928;27;20579;-81
2022/10/24 12:50:40;;;;;;;8.90;3.58;;;;;;;20.41;70.63;98966.44;8484279;27;20045;-81
2022/10/24 12:54:43;;;;;;;7.57;2.63;;;;;;;20.80;69.58;98960.53;8502479;27;20042;-81
2022/10/24 12:58:45;;;;;;;8.32;2.78;;;;;;;21.70;66.74;98955.22;8500714;27;20064;-81
2022/10/24 13:02:55;;;;;;;14.55;4.32;;;;;;;22.46;64.76;98955.09;8501454;27;20050;-80
2022/10/24 13:07:18;;;;;;;14.30;2.65;;;;;;;22.85;64.35;98961.41;8500662;27;20043;-80
2022/10/24 13:11:41;;;;;;;12.07;2.53;;;;;;;22.25;63.78;98962.13;8451609;28;20046;-82
2022/10/24 13:15:54;;;;;;;10.95;2.53;;;;;;;21.84;64.96;98952.53;8436144;28;20044;-82
2022/10/24 13:20:22;;;;;;;11.60;2.55;;;;;;;21.44;65.54;98951.59;8450959;28;20055;-82
2022/10/24 13:24:44;;;;;;;18.40;3.00;;;;;;;21.16;67.13;98954.16;8255688;28;20051;-81
2022/10/24 13:28:45;;;;;;;13.38;2.83;;;;;;;21.08;67.70;98966.25;8238092;28;20062;-80
2022/10/24 13:32:46;;;;;;;11.70;3.92;;;;;;;20.98;68.07;98972.44;8255344;28;20069;-82
2022/10/24 13:37:10;;;;;;;19.25;3.03;;;;;;;20.79;67.99;98975.41;8255530;28;20070;-82
2022/10/24 13:41:17;;;;;;;13.00;4.18;;;;;;;20.56;68.10;98990.13;8254747;28;20054;-83
2022/10/24 13:45:25;;;;;;;7.10;2.65;;;;;;;20.36;69.29;98991.47;8239033;28;20047;-80
2022/10/24 13:49:37;;;;;;;11.20;3.13;;;;;;;20.10;69.90;98997.03;8260730;28;20046;-80
2022/10/24 13:53:46;;;;;;;7.60;3.03;;;;;;;19.87;70.92;99002.66;8279678;28;20410;-80
2022/10/24 13:57:54;;;;;;;9.82;3.17;;;;;;;19.76;71.65;98997.03;8326211;28;20431;-80
2022/10/24 14:01:57;;;;;;;13.50;3.47;;;;;;;19.59;72.00;98997.59;8492620;27;20058;-81
2022/10/24 14:06:00;;;;;;;8.45;3.85;;;;;;;19.48;72.59;98985.69;8513651;27;20270;-80
2022/10/24 14:10:06;;;;;;;14.57;3.80;;;;;;;19.46;72.80;99001.69;8504115;27;20046;-80
2022/10/24 14:14:38;;;;;;;12.88;3.70;;;;;;;19.39;73.34;99009.78;8494647;27;20130;-81
2022/10/24 14:18:42;;;;;;;10.82;3.80;;;;;;;19.24;74.19;99013.47;8507587;27;20337;-81
2022/10/24 14:22:43;;;;;;;15.80;3.95;;;;;;;19.11;74.94;99009.34;8469956;27;20043;-81
2022/10/24 14:26:45;;;;;;;11.95;3.55;;;;;;;19.00;75.37;99003.72;8480011;27;20416;-81
2022/10/24 14:30:54;;;;;;;14.43;3.40;;;;;;;18.85;75.92;99008.16;8468286;27;20118;-80
2022/10/24 14:34:57;;;;;;;12.40;4.43;;;;;;;18.72;76.69;99004.03;8485393;27;20043;-82
2022/10/24 14:38:59;;;;;;;13.18;3.42;;;;;;;18.54;77.32;99008.41;8474720;27;20040;-80
2022/10/24 14:43:01;;;;;;;16.83;3.45;;;;;;;18.41;77.84;99015.16;8475184;27;20044;-81
2022/10/24 14:47:04;;;;;;;13.98;4.10;;;;;;;18.32;78.40;99011.88;8480274;27;20071;-82
2022/10/24 14:51:14;;;;;;;12.52;3.60;;;;;;;18.17;79.13;99001.81;8450645;27;20084;-81
2022/10/24 14:55:22;;;;;;;17.52;3.90;;;;;;;18.03;79.74;99005.84;8468662;27;20040;-81
2022/10/24 14:59:25;;;;;;;13.55;3.72;;;;;;;17.91;80.07;99011.47;8477722;27;20031;-81
2022/10/24 15:03:27;;;;;;;17.13;4.55;;;;;;;17.79;80.60;99006.13;8468066;27;20051;-80
2022/10/24 15:07:30;;;;;;;9.43;4.50;;;;;;;17.70;80.93;99002.84;8474016;27;20047;-80
2022/10/24 15:11:39;;;;;;;18.98;4.03;;;;;;;17.62;81.30;98995.63;8479652;27;20048;-82
2022/10/24 15:15:54;;;;;;;7.00;4.28;;;;;;;17.52;81.60;98996.16;8465923;27;20044;-81
2022/10/24 15:20:00;;;;;;;17.42;4.57;;;;;;;17.44;81.84;98999.88;8472259;27;20051;-81
2022/10/24 15:24:02;;;;;;;15.18;5.60;;;;;;;17.32;82.25;98992.59;8504078;27;20499;-80
2022/10/24 15:28:04;;;;;;;16.40;5.88;;;;;;;17.25;82.72;98998.69;8488417;27;20062;-80
2022/10/24 15:32:10;;;;;;;16.30;5.20;;;;;;;17.21;83.01;99008.75;8503599;27;20057;-80
2022/10/24 15:36:21;;;;;;;10.82;5.22;;;;;;;17.14;83.12;99008.56;8501522;27;20059;-81
2022/10/24 15:40:25;;;;;;;17.95;5.65;;;;;;;17.10;83.16;98999.50;8507382;27;20043;-82
2022/10/24 15:44:29;;;;;;;18.73;6.05;;;;;;;17.05;83.27;98999.78;8471779;27;20051;-80
2022/10/24 15:48:30;;;;;;;15.07;6.25;;;;;;;17.01;83.40;99007.09;8510012;27;20046;-80
2022/10/24 15:52:31;;;;;;;27.10;9.60;;;;;;;16.93;83.57;99013.50;8447524;27;20066;-80
2022/10/24 15:56:32;;;;;;;20.73;8.32;;;;;;;16.89;83.86;99032.53;8494292;27;20438;-79
2022/10/24 16:00:33;;;;;;;15.48;6.50;;;;;;;16.84;84.08;99037.44;8501128;27;20151;-80
2022/10/24 16:04:39;;;;;;;7.30;4.70;;;;;;;16.84;84.04;99042.91;8508028;27;20039;-79
2022/10/24 16:08:39;;;;;;;20.50;6.28;;;;;;;16.78;84.22;99047.03;8503222;27;20103;-80
2022/10/24 16:12:42;;;;;;;17.10;6.85;;;;;;;16.72;84.50;99067.50;8515154;27;20103;-82
2022/10/24 16:16:43;;;;;;;20.67;6.97;;;;;;;16.73;84.53;99069.09;8511114;27;20047;-80
2022/10/24 16:20:44;;;;;;;20.85;5.50;;;;;;;16.72;84.62;99064.78;8505490;27;20070;-81
2022/10/24 16:24:47;;;;;;;16.88;5.45;;;;;;;16.64;84.57;99071.22;8507054;27;20039;-81
2022/10/24 16:28:49;;;;;;;22.30;7.47;;;;;;;16.64;84.62;99060.31;8467128;27;20411;-80
2022/10/24 16:32:50;;;;;;;19.13;8.10;;;;;;;16.61;84.90;99060.97;8510148;27;20039;-80
2022/10/24 16:36:55;;;;;;;18.42;6.05;;;;;;;16.59;84.99;99055.09;8478183;27;20108;-80
2022/10/24 16:40:57;;;;;;;17.80;7.82;;;;;;;16.52;85.27;99046.69;8498785;27;20553;-80
2022/10/24 16:44:58;;;;;;;28.88;10.55;;;;;;;16.51;85.35;99051.34;8502612;27;20808;-80
2022/10/24 16:48:59;;;;;;;21.30;9.13;;;;;;;16.45;85.71;99048.09;8504831;27;20049;-80
2022/10/24 16:53:02;;;;;;;16.23;8.55;;;;;;;16.39;86.03;99049.47;8499909;27;20053;-80
2022/10/24 16:57:03;;;;;;;18.05;7.95;;;;;;;16.34;86.30;99046.22;8471657;27;20385;-81
2022/10/24 17:01:11;;;;;;;24.40;8.30;;;;;;;16.31;86.72;99060.53;8474335;27;20043;-79
2022/10/24 17:05:16;;;;;;;20.90;7.47;;;;;;;16.26;86.79;99067.03;8513995;27;20070;-80
2022/10/24 17:09:20;;;;;;;23.10;7.03;;;;;;;16.24;87.16;99063.84;8475493;27;20074;-80
2022/10/24 17:13:23;;;;;;;18.20;6.43;;;;;;;16.21;87.32;99070.00;8501555;27;20139;-79
2022/10/24 17:17:27;;;;;;;20.88;7.15;;;;;;;16.18;87.99;99067.97;8437977;27;20478;-80
2022/10/24 17:21:29;;;;;;;23.52;6.80;;;;;;;16.08;88.63;99082.06;8437996;28;20082;-80
2022/10/24 17:25:32;;;;;;;15.20;6.57;;;;;;;16.01;89.22;99071.00;8448773;28;20104;-80
2022/10/24 17:29:34;;;;;;;23.05;7.10;;;;;;;15.96;89.58;99068.50;8431195;28;20139;-80
2022/10/24 17:33:35;;;;;;;21.88;7.05;;;;;;;15.86;90.62;99055.38;8433245;28;20036;-79
2022/10/24 17:38:03;;;;;;;20.73;7.63;;;;;;;15.87;90.92;99059.66;8437192;28;20043;-79
2022/10/24 17:42:08;;;;;;;17.25;6.68;;;;;;;15.84;90.98;99052.19;8445733;28;20637;-79
2022/10/24 17:46:12;;;;;;;16.30;6.80;;;;;;;15.81;91.17;99050.19;8430158;28;20060;-80
2022/10/24 17:50:16;;;;;;;20.05;6.88;;;;;;;15.80;91.37;99048.59;8429128;28;20106;-80
2022/10/24 17:54:17;;;;;;;18.25;6.97;;;;;;;15.82;91.43;99049.00;8450524;28;20207;-80
2022/10/24 17:58:21;;;;;;;18.27;6.82;;;;;;;15.82;91.49;99040.84;8418509;28;20043;-80
2022/10/24 18:02:27;;;;;;;10.82;5.90;;;;;;;15.81;91.49;99050.94;8363752;28;20600;-80
2022/10/24 18:06:30;;;;;;;16.77;5.95;;;;;;;15.84;91.43;99049.47;8406612;28;20048;-80
2022/10/24 18:10:36;;;;;;;14.98;6.28;;;;;;;15.90;91.30;99053.53;8389064;28;20186;-80
2022/10/24 18:14:37;;;;;;;16.42;6.30;;;;;;;15.84;91.61;99046.75;8403318;28;20074;-81
2022/10/24 18:18:38;;;;;;;116.70;50.22;;;;;;;15.77;92.11;99049.25;8419161;28;20047;-81
2022/10/24 18:22:41;;;;;;;49.22;21.20;;;;;;;15.75;92.38;99040.66;8388804;28;20065;-82
2022/10/24 18:26:42;;;;;;;90.93;31.58;;;;;;;15.73;92.63;99037.47;8385574;28;20144;-81
2022/10/24 18:30:44;;;;;;;106.07;33.00;;;;;;;15.70;92.88;99038.16;8339037;28;20060;-80
2022/10/24 18:34:46;;;;;;;57.38;21.17;;;;;;;15.65;93.44;99041.13;8391002;28;20052;-81
2022/10/24 18:38:52;;;;;;;40.75;16.90;;;;;;;15.61;93.60;99046.44;8418589;28;20210;-80
2022/10/24 18:43:04;;;;;;;78.30;29.23;;;;;;;15.61;93.59;99047.25;8437612;28;20134;-80
2022/10/24 18:47:16;;;;;;;70.50;27.90;;;;;;;15.56;94.04;99050.22;8406690;28;20051;-81
2022/10/24 18:51:30;;;;;;;49.17;22.50;;;;;;;15.51;94.40;99047.72;8437659;28;20063;-80